sensor_id;sensor_type;location;lat;lon;timestamp;P1;durP1;ratioP1;P2;durP2;ratioP2
73382;SDS011;61600;48.126;11.542;2023-05-10T00:00:00;1.17;;;0.70;;
73382;SDS011;61600;48.126;11.542;2023-05-10T00:02:26;1.63;;;0.90;;
73382;SDS011;61600;48.126;11.542;2023-05-10T00:04:52;1.77;;;0.77;;
73382;SDS011;61600;48.126;11.542;2023-05-10T00:07:17;1.35;;;0.70;;
73382;SDS011;61600;48.126;11.542;2023-05-10T00:09:43;1.17;;;0.68;;
73382;SDS011;61600;48.126;11.542;2023-05-10T00:12:09;1.02;;;0.70;;
73382;SDS011;61600;48.126;11.542;2023-05-10T00:14:35;2.35;;;0.95;;
73382;SDS011;61600;48.126;11.542;2023-05-10T00:17:00;1.50;;;0.70;;
73382;SDS011;61600;48.126;11.542;2023-05-10T00:19:26;1.13;;;0.70;;
73382;SDS011;61600;48.126;11.542;2023-05-10T00:21:52;1.25;;;0.73;;
73382;SDS011;61600;48.126;11.542;2023-05-10T00:24:17;3.00;;;0.60;;
73382;SDS011;61600;48.126;11.542;2023-05-10T00:26:43;1.55;;;0.85;;
73382;SDS011;61600;48.126;11.542;2023-05-10T00:29:09;1.75;;;0.65;;
73382;SDS011;61600;48.126;11.542;2023-05-10T00:31:35;2.00;;;0.60;;
73382;SDS011;61600;48.126;11.542;2023-05-10T00:34:00;1.08;;;0.57;;
73382;SDS011;61600;48.126;11.542;2023-05-10T00:36:26;2.05;;;0.88;;
73382;SDS011;61600;48.126;11.542;2023-05-10T00:38:53;1.30;;;0.77;;
73382;SDS011;61600;48.126;11.542;2023-05-10T00:41:18;2.90;;;0.90;;
73382;SDS011;61600;48.126;11.542;2023-05-10T00:43:44;1.02;;;0.60;;
73382;SDS011;61600;48.126;11.542;2023-05-10T00:46:11;2.38;;;0.73;;
73382;SDS011;61600;48.126;11.542;2023-05-10T00:48:37;1.58;;;0.63;;
73382;SDS011;61600;48.126;11.542;2023-05-10T00:51:03;1.15;;;0.75;;
73382;SDS011;61600;48.126;11.542;2023-05-10T00:53:30;2.25;;;0.55;;
73382;SDS011;61600;48.126;11.542;2023-05-10T00:55:57;1.75;;;0.60;;
73382;SDS011;61600;48.126;11.542;2023-05-10T00:58:24;1.30;;;0.60;;
73382;SDS011;61600;48.126;11.542;2023-05-10T01:00:54;0.95;;;0.52;;
73382;SDS011;61600;48.126;11.542;2023-05-10T01:03:22;1.45;;;0.77;;
73382;SDS011;61600;48.126;11.542;2023-05-10T01:05:48;0.40;;;0.40;;
73382;SDS011;61600;48.126;11.542;2023-05-10T01:08:14;0.40;;;0.40;;
73382;SDS011;61600;48.126;11.542;2023-05-10T01:10:40;1.17;;;0.57;;
73382;SDS011;61600;48.126;11.542;2023-05-10T01:13:06;0.50;;;0.50;;
73382;SDS011;61600;48.126;11.542;2023-05-10T01:15:32;1.70;;;0.85;;
73382;SDS011;61600;48.126;11.542;2023-05-10T01:17:58;1.42;;;0.52;;
73382;SDS011;61600;48.126;11.542;2023-05-10T01:20:24;0.80;;;0.50;;
73382;SDS011;61600;48.126;11.542;2023-05-10T01:34:25;1.40;;;0.60;;
73382;SDS011;61600;48.126;11.542;2023-05-10T01:42:10;0.77;;;0.50;;
73382;SDS011;61600;48.126;11.542;2023-05-10T01:47:20;1.23;;;0.52;;
73382;SDS011;61600;48.126;11.542;2023-05-10T01:49:56;0.32;;;0.32;;
73382;SDS011;61600;48.126;11.542;2023-05-10T01:52:32;0.80;;;0.50;;
73382;SDS011;61600;48.126;11.542;2023-05-10T01:55:07;1.27;;;0.50;;
73382;SDS011;61600;48.126;11.542;2023-05-10T01:57:38;0.30;;;0.30;;
73382;SDS011;61600;48.126;11.542;2023-05-10T02:00:06;3.92;;;0.40;;
73382;SDS011;61600;48.126;11.542;2023-05-10T02:02:36;0.57;;;0.40;;
73382;SDS011;61600;48.126;11.542;2023-05-10T02:05:05;1.92;;;0.50;;
73382;SDS011;61600;48.126;11.542;2023-05-10T02:07:33;0.30;;;0.30;;
73382;SDS011;61600;48.126;11.542;2023-05-10T02:10:02;0.90;;;0.60;;
73382;SDS011;61600;48.126;11.542;2023-05-10T02:12:29;1.00;;;0.43;;
73382;SDS011;61600;48.126;11.542;2023-05-10T02:14:56;0.55;;;0.45;;
73382;SDS011;61600;48.126;11.542;2023-05-10T02:17:24;1.15;;;0.60;;
73382;SDS011;61600;48.126;11.542;2023-05-10T02:19:51;0.50;;;0.40;;
73382;SDS011;61600;48.126;11.542;2023-05-10T02:22:19;0.45;;;0.45;;
73382;SDS011;61600;48.126;11.542;2023-05-10T02:24:49;0.73;;;0.43;;
73382;SDS011;61600;48.126;11.542;2023-05-10T02:27:24;1.60;;;0.50;;
73382;SDS011;61600;48.126;11.542;2023-05-10T02:29:52;0.40;;;0.40;;
73382;SDS011;61600;48.126;11.542;2023-05-10T02:32:20;0.90;;;0.40;;
73382;SDS011;61600;48.126;11.542;2023-05-10T02:34:52;0.75;;;0.40;;
73382;SDS011;61600;48.126;11.542;2023-05-10T02:37:18;0.57;;;0.50;;
73382;SDS011;61600;48.126;11.542;2023-05-10T02:39:48;0.60;;;0.50;;
73382;SDS011;61600;48.126;11.542;2023-05-10T02:42:38;1.05;;;0.50;;
73382;SDS011;61600;48.126;11.542;2023-05-10T02:45:10;0.52;;;0.50;;
73382;SDS011;61600;48.126;11.542;2023-05-10T02:47:39;0.82;;;0.57;;
73382;SDS011;61600;48.126;11.542;2023-05-10T02:50:05;0.77;;;0.50;;
73382;SDS011;61600;48.126;11.542;2023-05-10T02:52:36;0.43;;;0.40;;
73382;SDS011;61600;48.126;11.542;2023-05-10T02:55:05;1.77;;;0.50;;
73382;SDS011;61600;48.126;11.542;2023-05-10T02:57:36;1.42;;;1.15;;
73382;SDS011;61600;48.126;11.542;2023-05-10T03:00:09;0.40;;;0.40;;
73382;SDS011;61600;48.126;11.542;2023-05-10T03:02:36;0.40;;;0.40;;
73382;SDS011;61600;48.126;11.542;2023-05-10T03:05:02;1.15;;;0.60;;
73382;SDS011;61600;48.126;11.542;2023-05-10T03:07:28;1.25;;;0.47;;
73382;SDS011;61600;48.126;11.542;2023-05-10T03:09:55;1.13;;;0.60;;
73382;SDS011;61600;48.126;11.542;2023-05-10T03:12:39;0.85;;;0.50;;
73382;SDS011;61600;48.126;11.542;2023-05-10T03:18:00;0.88;;;0.60;;
73382;SDS011;61600;48.126;11.542;2023-05-10T03:20:38;0.47;;;0.40;;
73382;SDS011;61600;48.126;11.542;2023-05-10T03:23:12;0.90;;;0.60;;
73382;SDS011;61600;48.126;11.542;2023-05-10T03:25:46;1.27;;;0.35;;
73382;SDS011;61600;48.126;11.542;2023-05-10T03:28:14;0.50;;;0.40;;
73382;SDS011;61600;48.126;11.542;2023-05-10T03:30:41;1.27;;;0.30;;
73382;SDS011;61600;48.126;11.542;2023-05-10T03:33:08;0.82;;;0.40;;
73382;SDS011;61600;48.126;11.542;2023-05-10T03:35:34;0.60;;;0.60;;
73382;SDS011;61600;48.126;11.542;2023-05-10T03:38:00;0.40;;;0.35;;
73382;SDS011;61600;48.126;11.542;2023-05-10T03:40:26;0.40;;;0.40;;
73382;SDS011;61600;48.126;11.542;2023-05-10T03:42:54;0.85;;;0.40;;
73382;SDS011;61600;48.126;11.542;2023-05-10T03:45:20;0.50;;;0.40;;
73382;SDS011;61600;48.126;11.542;2023-05-10T03:47:46;1.25;;;0.38;;
73382;SDS011;61600;48.126;11.542;2023-05-10T03:50:12;2.10;;;0.40;;
73382;SDS011;61600;48.126;11.542;2023-05-10T03:52:38;0.43;;;0.30;;
73382;SDS011;61600;48.126;11.542;2023-05-10T03:55:06;0.60;;;0.40;;
73382;SDS011;61600;48.126;11.542;2023-05-10T03:57:33;1.20;;;0.40;;
73382;SDS011;61600;48.126;11.542;2023-05-10T03:59:59;1.38;;;0.50;;
73382;SDS011;61600;48.126;11.542;2023-05-10T04:02:25;0.52;;;0.40;;
73382;SDS011;61600;48.126;11.542;2023-05-10T04:04:51;0.35;;;0.30;;
73382;SDS011;61600;48.126;11.542;2023-05-10T04:07:17;1.08;;;0.40;;
73382;SDS011;61600;48.126;11.542;2023-05-10T04:09:43;1.25;;;0.38;;
73382;SDS011;61600;48.126;11.542;2023-05-10T04:12:09;0.45;;;0.20;;
73382;SDS011;61600;48.126;11.542;2023-05-10T04:14:35;0.50;;;0.40;;
73382;SDS011;61600;48.126;11.542;2023-05-10T04:17:01;1.30;;;0.40;;
73382;SDS011;61600;48.126;11.542;2023-05-10T04:19:32;0.63;;;0.30;;
73382;SDS011;61600;48.126;11.542;2023-05-10T04:21:59;0.70;;;0.30;;
73382;SDS011;61600;48.126;11.542;2023-05-10T04:24:24;4.10;;;0.50;;
73382;SDS011;61600;48.126;11.542;2023-05-10T04:26:51;1.08;;;0.40;;
73382;SDS011;61600;48.126;11.542;2023-05-10T04:29:16;0.60;;;0.45;;
73382;SDS011;61600;48.126;11.542;2023-05-10T04:31:42;0.55;;;0.50;;
73382;SDS011;61600;48.126;11.542;2023-05-10T04:34:08;1.27;;;0.50;;
73382;SDS011;61600;48.126;11.542;2023-05-10T04:36:34;0.32;;;0.25;;
73382;SDS011;61600;48.126;11.542;2023-05-10T04:39:01;0.70;;;0.40;;
73382;SDS011;61600;48.126;11.542;2023-05-10T04:41:30;1.95;;;0.40;;
73382;SDS011;61600;48.126;11.542;2023-05-10T04:43:56;0.38;;;0.30;;
73382;SDS011;61600;48.126;11.542;2023-05-10T04:46:22;1.13;;;0.40;;
73382;SDS011;61600;48.126;11.542;2023-05-10T04:48:48;0.65;;;0.32;;
73382;SDS011;61600;48.126;11.542;2023-05-10T04:51:13;0.98;;;0.50;;
73382;SDS011;61600;48.126;11.542;2023-05-10T04:53:39;0.40;;;0.25;;
73382;SDS011;61600;48.126;11.542;2023-05-10T04:56:05;0.90;;;0.47;;
73382;SDS011;61600;48.126;11.542;2023-05-10T04:58:31;2.05;;;0.40;;
73382;SDS011;61600;48.126;11.542;2023-05-10T05:00:57;1.58;;;0.30;;
73382;SDS011;61600;48.126;11.542;2023-05-10T05:03:29;0.47;;;0.38;;
73382;SDS011;61600;48.126;11.542;2023-05-10T05:05:55;0.52;;;0.30;;
73382;SDS011;61600;48.126;11.542;2023-05-10T05:08:21;0.55;;;0.40;;
73382;SDS011;61600;48.126;11.542;2023-05-10T05:10:47;0.90;;;0.50;;
73382;SDS011;61600;48.126;11.542;2023-05-10T05:13:15;1.08;;;0.68;;
73382;SDS011;61600;48.126;11.542;2023-05-10T05:15:41;3.08;;;0.60;;
73382;SDS011;61600;48.126;11.542;2023-05-10T05:18:07;2.22;;;0.65;;
73382;SDS011;61600;48.126;11.542;2023-05-10T05:20:33;2.78;;;0.60;;
73382;SDS011;61600;48.126;11.542;2023-05-10T05:23:02;1.65;;;0.82;;
73382;SDS011;61600;48.126;11.542;2023-05-10T05:25:27;0.25;;;0.20;;
73382;SDS011;61600;48.126;11.542;2023-05-10T05:27:53;3.42;;;0.65;;
73382;SDS011;61600;48.126;11.542;2023-05-10T05:30:19;0.60;;;0.40;;
73382;SDS011;61600;48.126;11.542;2023-05-10T05:32:45;0.65;;;0.40;;
73382;SDS011;61600;48.126;11.542;2023-05-10T05:35:12;0.50;;;0.30;;
73382;SDS011;61600;48.126;11.542;2023-05-10T05:37:38;0.70;;;0.70;;
73382;SDS011;61600;48.126;11.542;2023-05-10T05:40:04;0.38;;;0.30;;
73382;SDS011;61600;48.126;11.542;2023-05-10T05:42:31;0.38;;;0.30;;
73382;SDS011;61600;48.126;11.542;2023-05-10T05:44:57;2.88;;;0.70;;
73382;SDS011;61600;48.126;11.542;2023-05-10T05:47:23;2.70;;;0.70;;
73382;SDS011;61600;48.126;11.542;2023-05-10T05:49:49;1.17;;;0.50;;
73382;SDS011;61600;48.126;11.542;2023-05-10T05:52:14;1.55;;;0.50;;
73382;SDS011;61600;48.126;11.542;2023-05-10T05:54:47;0.57;;;0.38;;
73382;SDS011;61600;48.126;11.542;2023-05-10T05:57:13;2.80;;;0.70;;
73382;SDS011;61600;48.126;11.542;2023-05-10T05:59:38;2.08;;;0.60;;
73382;SDS011;61600;48.126;11.542;2023-05-10T06:02:08;1.70;;;0.80;;
73382;SDS011;61600;48.126;11.542;2023-05-10T06:04:34;1.42;;;0.80;;
73382;SDS011;61600;48.126;11.542;2023-05-10T06:07:00;6.97;;;0.73;;
73382;SDS011;61600;48.126;11.542;2023-05-10T06:09:26;0.88;;;0.60;;
73382;SDS011;61600;48.126;11.542;2023-05-10T06:11:52;3.88;;;1.00;;
73382;SDS011;61600;48.126;11.542;2023-05-10T06:14:19;2.25;;;0.75;;
73382;SDS011;61600;48.126;11.542;2023-05-10T06:16:45;2.55;;;1.00;;
73382;SDS011;61600;48.126;11.542;2023-05-10T06:19:11;1.70;;;0.73;;
73382;SDS011;61600;48.126;11.542;2023-05-10T06:21:37;2.20;;;1.13;;
73382;SDS011;61600;48.126;11.542;2023-05-10T06:24:03;3.30;;;0.95;;
73382;SDS011;61600;48.126;11.542;2023-05-10T06:26:32;3.00;;;0.90;;
73382;SDS011;61600;48.126;11.542;2023-05-10T06:28:58;1.17;;;0.70;;
73382;SDS011;61600;48.126;11.542;2023-05-10T06:31:24;2.78;;;0.80;;
73382;SDS011;61600;48.126;11.542;2023-05-10T06:33:50;4.53;;;1.00;;
73382;SDS011;61600;48.126;11.542;2023-05-10T06:36:16;1.00;;;0.70;;
73382;SDS011;61600;48.126;11.542;2023-05-10T06:38:42;3.25;;;1.80;;
73382;SDS011;61600;48.126;11.542;2023-05-10T06:41:08;2.53;;;1.05;;
73382;SDS011;61600;48.126;11.542;2023-05-10T06:43:33;3.17;;;1.40;;
73382;SDS011;61600;48.126;11.542;2023-05-10T06:46:00;2.42;;;1.20;;
73382;SDS011;61600;48.126;11.542;2023-05-10T06:48:25;1.48;;;0.95;;
73382;SDS011;61600;48.126;11.542;2023-05-10T06:50:51;1.30;;;0.93;;
73382;SDS011;61600;48.126;11.542;2023-05-10T06:53:17;2.53;;;0.60;;
73382;SDS011;61600;48.126;11.542;2023-05-10T06:55:49;1.25;;;0.90;;
73382;SDS011;61600;48.126;11.542;2023-05-10T06:58:15;2.88;;;0.90;;
73382;SDS011;61600;48.126;11.542;2023-05-10T07:00:41;2.03;;;0.90;;
73382;SDS011;61600;48.126;11.542;2023-05-10T07:03:11;2.78;;;1.02;;
73382;SDS011;61600;48.126;11.542;2023-05-10T07:05:37;2.55;;;1.25;;
73382;SDS011;61600;48.126;11.542;2023-05-10T07:08:04;2.25;;;0.80;;
73382;SDS011;61600;48.126;11.542;2023-05-10T07:10:30;1.67;;;1.10;;
73382;SDS011;61600;48.126;11.542;2023-05-10T07:12:56;3.80;;;1.15;;
73382;SDS011;61600;48.126;11.542;2023-05-10T07:15:22;4.90;;;1.50;;
73382;SDS011;61600;48.126;11.542;2023-05-10T07:17:48;2.13;;;1.25;;
73382;SDS011;61600;48.126;11.542;2023-05-10T07:20:13;4.50;;;1.60;;
73382;SDS011;61600;48.126;11.542;2023-05-10T07:22:39;1.63;;;1.00;;
73382;SDS011;61600;48.126;11.542;2023-05-10T07:25:06;1.02;;;0.70;;
73382;SDS011;61600;48.126;11.542;2023-05-10T07:27:32;1.27;;;0.80;;
73382;SDS011;61600;48.126;11.542;2023-05-10T07:29:57;4.93;;;1.27;;
73382;SDS011;61600;48.126;11.542;2023-05-10T07:32:24;1.60;;;0.90;;
73382;SDS011;61600;48.126;11.542;2023-05-10T07:34:50;2.47;;;1.10;;
73382;SDS011;61600;48.126;11.542;2023-05-10T07:37:15;1.88;;;1.10;;
73382;SDS011;61600;48.126;11.542;2023-05-10T07:39:41;3.67;;;1.27;;
73382;SDS011;61600;48.126;11.542;2023-05-10T07:42:07;1.27;;;0.80;;
73382;SDS011;61600;48.126;11.542;2023-05-10T07:44:33;1.88;;;1.00;;
73382;SDS011;61600;48.126;11.542;2023-05-10T07:46:59;2.90;;;1.00;;
73382;SDS011;61600;48.126;11.542;2023-05-10T07:49:25;5.18;;;1.00;;
73382;SDS011;61600;48.126;11.542;2023-05-10T07:51:51;2.35;;;1.20;;
73382;SDS011;61600;48.126;11.542;2023-05-10T07:54:17;2.88;;;1.20;;
73382;SDS011;61600;48.126;11.542;2023-05-10T07:56:43;1.75;;;1.08;;
73382;SDS011;61600;48.126;11.542;2023-05-10T07:59:15;2.50;;;0.90;;
73382;SDS011;61600;48.126;11.542;2023-05-10T08:01:42;2.78;;;0.90;;
73382;SDS011;61600;48.126;11.542;2023-05-10T08:04:09;4.25;;;1.08;;
73382;SDS011;61600;48.126;11.542;2023-05-10T08:06:34;1.30;;;0.80;;
73382;SDS011;61600;48.126;11.542;2023-05-10T08:09:00;1.70;;;1.00;;
73382;SDS011;61600;48.126;11.542;2023-05-10T08:11:26;3.20;;;0.70;;
73382;SDS011;61600;48.126;11.542;2023-05-10T08:13:55;1.77;;;0.80;;
73382;SDS011;61600;48.126;11.542;2023-05-10T08:16:20;1.80;;;0.70;;
73382;SDS011;61600;48.126;11.542;2023-05-10T08:18:46;1.40;;;0.70;;
73382;SDS011;61600;48.126;11.542;2023-05-10T08:21:13;2.13;;;0.80;;
73382;SDS011;61600;48.126;11.542;2023-05-10T08:23:39;2.42;;;0.90;;
73382;SDS011;61600;48.126;11.542;2023-05-10T08:26:06;1.60;;;0.60;;
73382;SDS011;61600;48.126;11.542;2023-05-10T08:28:31;3.88;;;0.80;;
73382;SDS011;61600;48.126;11.542;2023-05-10T08:30:57;2.72;;;0.88;;
73382;SDS011;61600;48.126;11.542;2023-05-10T08:33:23;7.53;;;0.80;;
73382;SDS011;61600;48.126;11.542;2023-05-10T08:35:49;2.88;;;0.77;;
73382;SDS011;61600;48.126;11.542;2023-05-10T08:38:15;1.92;;;0.80;;
73382;SDS011;61600;48.126;11.542;2023-05-10T08:40:41;2.17;;;0.80;;
73382;SDS011;61600;48.126;11.542;2023-05-10T08:45:38;2.00;;;0.80;;
73382;SDS011;61600;48.126;11.542;2023-05-10T08:48:05;1.23;;;0.70;;
73382;SDS011;61600;48.126;11.542;2023-05-10T08:50:33;5.10;;;2.00;;
73382;SDS011;61600;48.126;11.542;2023-05-10T08:53:03;1.30;;;0.80;;
73382;SDS011;61600;48.126;11.542;2023-05-10T08:55:31;2.38;;;1.10;;
73382;SDS011;61600;48.126;11.542;2023-05-10T08:57:59;1.65;;;1.05;;
73382;SDS011;61600;48.126;11.542;2023-05-10T09:00:28;2.33;;;0.98;;
73382;SDS011;61600;48.126;11.542;2023-05-10T09:02:54;1.40;;;0.80;;
73382;SDS011;61600;48.126;11.542;2023-05-10T09:05:20;3.30;;;0.85;;
73382;SDS011;61600;48.126;11.542;2023-05-10T09:07:46;4.00;;;0.88;;
73382;SDS011;61600;48.126;11.542;2023-05-10T09:10:12;1.65;;;0.70;;
73382;SDS011;61600;48.126;11.542;2023-05-10T09:12:38;3.28;;;1.00;;
73382;SDS011;61600;48.126;11.542;2023-05-10T09:15:05;2.17;;;0.80;;
73382;SDS011;61600;48.126;11.542;2023-05-10T09:17:32;2.03;;;0.80;;
73382;SDS011;61600;48.126;11.542;2023-05-10T09:19:59;3.00;;;0.68;;
73382;SDS011;61600;48.126;11.542;2023-05-10T09:22:26;2.25;;;0.70;;
73382;SDS011;61600;48.126;11.542;2023-05-10T09:25:08;2.30;;;0.75;;
73382;SDS011;61600;48.126;11.542;2023-05-10T09:27:39;0.70;;;0.47;;
73382;SDS011;61600;48.126;11.542;2023-05-10T09:30:07;0.50;;;0.40;;
73382;SDS011;61600;48.126;11.542;2023-05-10T09:37:34;2.72;;;1.25;;
73382;SDS011;61600;48.126;11.542;2023-05-10T09:40:00;1.33;;;0.80;;
73382;SDS011;61600;48.126;11.542;2023-05-10T09:42:33;3.25;;;0.90;;
73382;SDS011;61600;48.126;11.542;2023-05-10T09:45:01;5.88;;;1.33;;
73382;SDS011;61600;48.126;11.542;2023-05-10T09:47:28;1.90;;;0.93;;
73382;SDS011;61600;48.126;11.542;2023-05-10T09:49:54;3.13;;;0.70;;
73382;SDS011;61600;48.126;11.542;2023-05-10T09:52:22;1.88;;;0.60;;
73382;SDS011;61600;48.126;11.542;2023-05-10T09:54:52;1.48;;;0.80;;
73382;SDS011;61600;48.126;11.542;2023-05-10T09:57:23;2.15;;;0.80;;
73382;SDS011;61600;48.126;11.542;2023-05-10T09:59:50;0.98;;;0.70;;
73382;SDS011;61600;48.126;11.542;2023-05-10T10:02:16;2.80;;;0.73;;
73382;SDS011;61600;48.126;11.542;2023-05-10T10:04:42;1.48;;;0.70;;
73382;SDS011;61600;48.126;11.542;2023-05-10T10:07:08;1.30;;;0.75;;
73382;SDS011;61600;48.126;11.542;2023-05-10T10:09:34;1.08;;;0.70;;
73382;SDS011;61600;48.126;11.542;2023-05-10T10:12:01;2.22;;;0.75;;
73382;SDS011;61600;48.126;11.542;2023-05-10T10:14:28;2.80;;;0.98;;
73382;SDS011;61600;48.126;11.542;2023-05-10T10:16:55;1.55;;;0.70;;
73382;SDS011;61600;48.126;11.542;2023-05-10T10:19:21;2.65;;;0.75;;
73382;SDS011;61600;48.126;11.542;2023-05-10T10:21:47;1.15;;;0.60;;
73382;SDS011;61600;48.126;11.542;2023-05-10T10:26:40;3.85;;;0.90;;
73382;SDS011;61600;48.126;11.542;2023-05-10T10:29:26;2.35;;;0.80;;
73382;SDS011;61600;48.126;11.542;2023-05-10T10:34:47;1.08;;;0.77;;
73382;SDS011;61600;48.126;11.542;2023-05-10T10:37:13;1.25;;;0.60;;
73382;SDS011;61600;48.126;11.542;2023-05-10T10:39:39;2.50;;;0.90;;
73382;SDS011;61600;48.126;11.542;2023-05-10T10:42:05;1.90;;;0.75;;
73382;SDS011;61600;48.126;11.542;2023-05-10T10:49:48;1.27;;;0.80;;
73382;SDS011;61600;48.126;11.542;2023-05-10T10:52:27;2.60;;;0.88;;
73382;SDS011;61600;48.126;11.542;2023-05-10T10:55:06;2.67;;;0.90;;
73382;SDS011;61600;48.126;11.542;2023-05-10T11:00:18;5.82;;;1.77;;
73382;SDS011;61600;48.126;11.542;2023-05-10T11:02:51;2.00;;;0.90;;
73382;SDS011;61600;48.126;11.542;2023-05-10T11:05:25;3.28;;;1.20;;
73382;SDS011;61600;48.126;11.542;2023-05-10T11:08:07;4.03;;;1.17;;
73382;SDS011;61600;48.126;11.542;2023-05-10T11:10:33;2.60;;;0.90;;
73382;SDS011;61600;48.126;11.542;2023-05-10T11:13:00;4.53;;;0.85;;
73382;SDS011;61600;48.126;11.542;2023-05-10T11:17:58;2.88;;;1.20;;
73382;SDS011;61600;48.126;11.542;2023-05-10T11:20:28;1.30;;;0.80;;
73382;SDS011;61600;48.126;11.542;2023-05-10T11:23:13;3.63;;;1.17;;
73382;SDS011;61600;48.126;11.542;2023-05-10T11:25:43;2.75;;;0.95;;
73382;SDS011;61600;48.126;11.542;2023-05-10T11:28:11;3.13;;;0.88;;
73382;SDS011;61600;48.126;11.542;2023-05-10T11:30:40;1.73;;;1.00;;
73382;SDS011;61600;48.126;11.542;2023-05-10T11:33:08;4.07;;;1.20;;
73382;SDS011;61600;48.126;11.542;2023-05-10T11:35:38;3.40;;;1.30;;
73382;SDS011;61600;48.126;11.542;2023-05-10T11:38:09;4.22;;;1.50;;
73382;SDS011;61600;48.126;11.542;2023-05-10T11:40:36;3.95;;;1.55;;
73382;SDS011;61600;48.126;11.542;2023-05-10T11:43:02;4.13;;;2.10;;
73382;SDS011;61600;48.126;11.542;2023-05-10T11:45:31;3.08;;;1.83;;
73382;SDS011;61600;48.126;11.542;2023-05-10T11:47:57;3.00;;;1.80;;
73382;SDS011;61600;48.126;11.542;2023-05-10T11:50:24;2.85;;;1.15;;
73382;SDS011;61600;48.126;11.542;2023-05-10T11:52:54;3.40;;;1.35;;
73382;SDS011;61600;48.126;11.542;2023-05-10T11:55:21;2.38;;;0.90;;
73382;SDS011;61600;48.126;11.542;2023-05-10T11:57:49;2.20;;;1.30;;
73382;SDS011;61600;48.126;11.542;2023-05-10T12:00:17;2.45;;;1.15;;
73382;SDS011;61600;48.126;11.542;2023-05-10T12:02:43;12.43;;;1.30;;
73382;SDS011;61600;48.126;11.542;2023-05-10T12:05:09;1.90;;;0.88;;
73382;SDS011;61600;48.126;11.542;2023-05-10T12:07:35;4.40;;;1.00;;
73382;SDS011;61600;48.126;11.542;2023-05-10T12:12:40;2.88;;;1.30;;
73382;SDS011;61600;48.126;11.542;2023-05-10T12:15:11;1.70;;;1.00;;
73382;SDS011;61600;48.126;11.542;2023-05-10T12:17:38;2.45;;;1.45;;
73382;SDS011;61600;48.126;11.542;2023-05-10T12:20:15;1.67;;;1.00;;
73382;SDS011;61600;48.126;11.542;2023-05-10T12:22:46;4.45;;;1.33;;
73382;SDS011;61600;48.126;11.542;2023-05-10T12:25:12;2.78;;;1.40;;
73382;SDS011;61600;48.126;11.542;2023-05-10T12:27:38;3.83;;;1.75;;
73382;SDS011;61600;48.126;11.542;2023-05-10T12:30:04;3.53;;;1.50;;
73382;SDS011;61600;48.126;11.542;2023-05-10T12:32:40;6.03;;;1.80;;
73382;SDS011;61600;48.126;11.542;2023-05-10T12:35:06;3.33;;;1.90;;
73382;SDS011;61600;48.126;11.542;2023-05-10T12:37:33;4.00;;;1.80;;
73382;SDS011;61600;48.126;11.542;2023-05-10T12:40:07;6.43;;;1.85;;
73382;SDS011;61600;48.126;11.542;2023-05-10T12:42:35;2.70;;;1.50;;
73382;SDS011;61600;48.126;11.542;2023-05-10T12:45:01;4.35;;;1.60;;
73382;SDS011;61600;48.126;11.542;2023-05-10T12:49:54;6.97;;;1.95;;
73382;SDS011;61600;48.126;11.542;2023-05-10T12:52:19;3.13;;;2.28;;
73382;SDS011;61600;48.126;11.542;2023-05-10T12:54:45;3.25;;;1.50;;
73382;SDS011;61600;48.126;11.542;2023-05-10T12:57:12;6.15;;;2.08;;
73382;SDS011;61600;48.126;11.542;2023-05-10T12:59:38;2.50;;;1.40;;
73382;SDS011;61600;48.126;11.542;2023-05-10T13:02:04;3.40;;;1.73;;
73382;SDS011;61600;48.126;11.542;2023-05-10T13:04:41;5.10;;;1.67;;
73382;SDS011;61600;48.126;11.542;2023-05-10T13:07:07;2.63;;;1.65;;
73382;SDS011;61600;48.126;11.542;2023-05-10T13:09:33;3.70;;;2.05;;
73382;SDS011;61600;48.126;11.542;2023-05-10T13:11:59;2.58;;;1.88;;
73382;SDS011;61600;48.126;11.542;2023-05-10T13:14:25;2.45;;;1.27;;
73382;SDS011;61600;48.126;11.542;2023-05-10T13:16:51;3.60;;;1.50;;
73382;SDS011;61600;48.126;11.542;2023-05-10T13:19:17;5.97;;;1.58;;
73382;SDS011;61600;48.126;11.542;2023-05-10T13:21:43;3.45;;;2.15;;
73382;SDS011;61600;48.126;11.542;2023-05-10T13:24:18;3.17;;;1.73;;
73382;SDS011;61600;48.126;11.542;2023-05-10T13:26:44;2.85;;;1.52;;
73382;SDS011;61600;48.126;11.542;2023-05-10T13:29:13;2.83;;;1.50;;
73382;SDS011;61600;48.126;11.542;2023-05-10T13:31:43;2.70;;;1.50;;
73382;SDS011;61600;48.126;11.542;2023-05-10T13:34:09;2.40;;;1.73;;
73382;SDS011;61600;48.126;11.542;2023-05-10T13:36:35;3.72;;;1.58;;
73382;SDS011;61600;48.126;11.542;2023-05-10T13:39:01;3.85;;;1.58;;
73382;SDS011;61600;48.126;11.542;2023-05-10T13:41:28;3.03;;;1.23;;
73382;SDS011;61600;48.126;11.542;2023-05-10T13:43:54;3.70;;;1.25;;
73382;SDS011;61600;48.126;11.542;2023-05-10T13:46:20;6.78;;;1.70;;
73382;SDS011;61600;48.126;11.542;2023-05-10T13:48:46;4.38;;;1.85;;
73382;SDS011;61600;48.126;11.542;2023-05-10T13:51:12;4.20;;;1.20;;
73382;SDS011;61600;48.126;11.542;2023-05-10T13:53:38;2.65;;;1.48;;
73382;SDS011;61600;48.126;11.542;2023-05-10T13:56:04;4.03;;;1.55;;
73382;SDS011;61600;48.126;11.542;2023-05-10T13:58:30;6.88;;;1.50;;
73382;SDS011;61600;48.126;11.542;2023-05-10T14:00:56;3.55;;;1.30;;
73382;SDS011;61600;48.126;11.542;2023-05-10T14:03:22;3.38;;;1.70;;
73382;SDS011;61600;48.126;11.542;2023-05-10T14:05:50;4.15;;;1.55;;
73382;SDS011;61600;48.126;11.542;2023-05-10T14:08:16;3.42;;;1.42;;
73382;SDS011;61600;48.126;11.542;2023-05-10T14:10:43;2.42;;;1.00;;
73382;SDS011;61600;48.126;11.542;2023-05-10T14:13:08;2.13;;;1.08;;
73382;SDS011;61600;48.126;11.542;2023-05-10T14:15:34;2.65;;;1.30;;
73382;SDS011;61600;48.126;11.542;2023-05-10T14:18:00;1.67;;;0.90;;
73382;SDS011;61600;48.126;11.542;2023-05-10T14:20:26;3.47;;;1.52;;
73382;SDS011;61600;48.126;11.542;2023-05-10T14:22:52;2.92;;;1.50;;
73382;SDS011;61600;48.126;11.542;2023-05-10T14:25:18;2.05;;;1.40;;
73382;SDS011;61600;48.126;11.542;2023-05-10T14:27:43;2.72;;;1.10;;
73382;SDS011;61600;48.126;11.542;2023-05-10T14:30:09;3.05;;;1.00;;
73382;SDS011;61600;48.126;11.542;2023-05-10T14:32:36;2.40;;;0.93;;
73382;SDS011;61600;48.126;11.542;2023-05-10T14:35:02;2.40;;;1.10;;
73382;SDS011;61600;48.126;11.542;2023-05-10T14:37:29;2.80;;;1.02;;
73382;SDS011;61600;48.126;11.542;2023-05-10T14:39:54;2.72;;;1.27;;
73382;SDS011;61600;48.126;11.542;2023-05-10T14:42:20;1.63;;;0.90;;
73382;SDS011;61600;48.126;11.542;2023-05-10T14:44:46;2.47;;;1.00;;
73382;SDS011;61600;48.126;11.542;2023-05-10T14:47:21;2.95;;;1.30;;
73382;SDS011;61600;48.126;11.542;2023-05-10T14:49:47;2.00;;;0.93;;
73382;SDS011;61600;48.126;11.542;2023-05-10T14:52:13;2.58;;;1.10;;
73382;SDS011;61600;48.126;11.542;2023-05-10T14:54:39;5.20;;;1.17;;
73382;SDS011;61600;48.126;11.542;2023-05-10T14:57:06;3.47;;;1.10;;
73382;SDS011;61600;48.126;11.542;2023-05-10T14:59:32;3.03;;;1.73;;
73382;SDS011;61600;48.126;11.542;2023-05-10T15:01:59;2.90;;;1.00;;
73382;SDS011;61600;48.126;11.542;2023-05-10T15:06:50;2.65;;;1.10;;
73382;SDS011;61600;48.126;11.542;2023-05-10T15:09:16;2.42;;;1.10;;
73382;SDS011;61600;48.126;11.542;2023-05-10T15:11:42;2.03;;;1.30;;
73382;SDS011;61600;48.126;11.542;2023-05-10T15:14:09;2.05;;;1.02;;
73382;SDS011;61600;48.126;11.542;2023-05-10T15:16:35;2.03;;;1.10;;
73382;SDS011;61600;48.126;11.542;2023-05-10T15:19:01;2.53;;;1.20;;
73382;SDS011;61600;48.126;11.542;2023-05-10T15:21:27;3.30;;;1.10;;
73382;SDS011;61600;48.126;11.542;2023-05-10T15:23:53;2.45;;;1.08;;
73382;SDS011;61600;48.126;11.542;2023-05-10T15:26:19;1.88;;;1.15;;